Airfield :
LOGIN :

Register | Disclaimer

   EN    FR    IT 

 










Legend :    VFR   Marginal VFR   IFR   Intensive IFR   Very Intensive IFR
Visi :
Ceiling :
>= 8 km
>= 3000ft
5 to 8 km
1000 to 3000 ft
1500m to 5 km
500 to 1000 ft
800 to 1500m
200 to 500 ft
< 800m
< 200 ft
Symbols :   Thunderstorms  Fog  Heavy snow  Heavy precipitations  Wind > 20 kt
SIGMETs :     Misc.  Thunderstorms  Icing  Turbulence  Mountain Waves  Volcanic Ashes






- Airport Elevation : 466 ft


LHPA - Pápa

CURRENT METAR :
  • 270745Z 19004KT 3000 BR SCT002 BKN033 M00/M00 Q0998 BECMG 5000 BR RMK YLO

EXPIRED METARs :
  • 270737Z 20004KT 2000 BR BKN002 BKN030 M00/M00 Q0998 RESH RMK AMB
  • 270715Z 20006KT 2000 -SH BR OVC002 M00/M00 Q0998 BECMG 3000 BR RMK AMB
  • 270714Z 20006KT 2000 -SH OVC002 M00/M00 Q0998 RMK AMB
  • 270700Z 20004KT 1500 BR BKN002 M00/M00 Q0998 RMK AMB
  • 270615Z 19006KT 0500 R34/1300U FZFG VV002 M01/M01 Q0997 TEMPO 1000 BR -SNRA -FZRA RMK RED
  • 270545Z 20008KT 0500 R34/P1500 FZFG VV002 M01/M01 Q0997 TEMPO 1000 BR -FZRA -RASN RMK RED
  • 270515Z 21006KT 0500 R34/P1500 FZFG VV002 M01/M01 Q0997 TEMPO 1000 BR -FZRA RMK RED

TAF AMD TAF LHPA
Valid from the 27 at 08:00 until the 28 at 06:00 UTC


270801Z 2708/2806 20004KT 3000 BR BKN005
BECMG 2708/2712 16009KT 9999 NSW BKN030
PROB30
TEMPO 2713/2716 5000 RA SHRA SCT010 BKN020
BECMG 2716/2718 22004KT 3000 BR BKN010
BECMG 2718/2721 VRB03KT 1500 BR OVC005
TEMPO 2721/2806 0300 FG VV002



MET'MAP, your aeronautical weather chart ! - Copyright ORBIFLY December 2007 - Disclaimer

ORBIFLY MET'MAP TEAM :

Programming & Development : Alexandra Zaïnal
Concept & original design : Baudouin d'Aumeries
Assistance for programming : Marc-Olivier Méhu
Technical & hardware support : Manuel Goepfert

Contact : metmap@orbifly.com




SOURCES & CREDITS :

   NOAA